Time,TemperatureF,DewpointF,PressureIn,WindDirection,WindDirectionDegrees,WindSpeedMPH,WindSpeedGustMPH,Humidity,HourlyPrecipIn,Conditions,Clouds,dailyrainin,SolarRadiationWatts/m^2,SoftwareType,DateUTC
2013-02-09 00:00:00,37.3,22.6,29.46,South,179,5.0,17.0,55,0.00,,SKC,0.00,0.00,VWS V14.01,2013-02-09 07:00:00,
2013-02-09 00:02:00,37.3,22.6,29.46,SW,214,10.0,11.0,55,0.00,,SKC,0.00,0.00,VWS V14.01,2013-02-09 07:02:00,
2013-02-09 00:09:00,36.9,23.1,29.47,SSW,206,12.0,16.0,57,0.00,,SKC,0.00,0.00,VWS V14.01,2013-02-09 07:09:00,
2013-02-09 00:15:00,36.6,23.2,29.46,South,190,9.0,16.0,58,0.00,,SKC,0.00,0.00,VWS V14.01,2013-02-09 07:15:00,
2013-02-09 00:21:00,36.4,23.0,29.49,South,173,10.0,12.0,58,0.00,,SKC,0.00,0.00,VWS V14.01,2013-02-09 07:21:00,
2013-02-09 00:27:00,36.2,23.3,29.48,SSW,202,5.0,15.0,59,0.00,,SKC,0.00,0.00,VWS V14.01,2013-02-09 07:27:00,
2013-02-09 00:30:00,36.1,23.2,29.49,South,183,3.0,15.0,59,0.00,,SKC,0.00,0.00,VWS V14.01,2013-02-09 07:30:00,
2013-02-09 00:33:00,36.1,23.2,29.49,SW,215,5.0,8.0,59,0.00,,SKC,0.00,0.00,VWS V14.01,2013-02-09 07:33:00,
2013-02-09 00:39:00,35.6,25.0,29.49,SSW,196,6.0,18.0,65,0.00,,SKC,0.00,0.00,VWS V14.01,2013-02-09 07:39:00,
2013-02-09 00:45:00,34.5,25.7,29.49,SSW,194,10.0,18.0,70,0.00,,SKC,0.00,0.00,VWS V14.01,2013-02-09 07:45:00,
2013-02-09 00:51:00,34.0,25.6,29.51,SSW,197,7.0,11.0,71,0.00,,SKC,0.00,0.00,VWS V14.01,2013-02-09 07:51:00,
2013-02-09 00:57:00,33.4,25.7,29.50,SSE,167,5.0,14.0,73,0.00,,SKC,0.00,0.00,VWS V14.01,2013-02-09 07:57:00,
2013-02-09 01:00:00,33.2,25.8,29.50,WSW,255,9.0,14.0,74,0.00,,SKC,0.00,0.00,VWS V14.01,2013-02-09 08:00:00,
2013-02-09 01:03:00,33.2,26.1,29.50,SW,218,5.0,9.0,75,0.00,,SKC,0.00,0.00,VWS V14.01,2013-02-09 08:03:00,
2013-02-09 01:09:00,32.9,26.2,29.50,South,188,14.0,14.0,76,0.00,,SKC,0.00,0.00,VWS V14.01,2013-02-09 08:09:00,
2013-02-09 01:15:00,32.7,26.3,29.50,South,186,2.0,14.0,77,0.00,,SKC,0.00,0.00,VWS V14.01,2013-02-09 08:15:00,
2013-02-09 01:21:00,32.5,26.4,29.50,SW,223,7.0,9.0,78,0.00,,SKC,0.00,0.00,VWS V14.01,2013-02-09 08:21:00,
2013-02-09 01:27:00,32.3,26.8,29.51,SW,230,4.0,9.0,80,0.00,,SKC,0.00,0.00,VWS V14.01,2013-02-09 08:27:00,
2013-02-09 01:30:00,32.2,27.0,29.51,WSW,244,4.0,9.0,81,0.00,,SKC,0.00,0.00,VWS V14.01,2013-02-09 08:30:00,
2013-02-09 01:33:00,32.0,26.8,29.50,WSW,245,2.0,6.0,81,0.00,,SKC,0.00,0.00,VWS V14.01,2013-02-09 08:33:00,
2013-02-09 01:39:00,31.8,26.9,29.50,SW,227,4.0,6.0,82,0.00,,SKC,0.00,0.00,VWS V14.01,2013-02-09 08:39:00,
2013-02-09 01:45:00,31.7,27.1,29.50,SW,223,4.0,6.0,83,0.00,,SKC,0.00,0.00,VWS V14.01,2013-02-09 08:45:00,
2013-02-09 01:51:00,31.6,27.0,29.50,SSW,206,0.0,7.0,83,0.00,,SKC,0.00,0.00,VWS V14.01,2013-02-09 08:51:00,
2013-02-09 01:57:00,31.5,26.9,29.50,West,263,7.0,9.0,83,0.00,,SKC,0.00,0.00,VWS V14.01,2013-02-09 08:57:00,
2013-02-09 02:00:00,31.5,26.9,29.49,SW,226,2.0,10.0,83,0.00,,SKC,0.00,0.00,VWS V14.01,2013-02-09 09:00:00,
2013-02-09 02:03:00,31.5,26.9,29.49,SW,232,5.0,9.0,83,0.00,,SKC,0.00,0.00,VWS V14.01,2013-02-09 09:03:00,
2013-02-09 02:09:00,31.5,26.9,29.49,SW,229,3.0,10.0,83,0.00,,SKC,0.00,0.00,VWS V14.01,2013-02-09 09:09:00,
2013-02-09 02:15:00,31.5,26.9,29.48,SW,230,3.0,10.0,83,0.00,,SKC,0.00,0.00,VWS V14.01,2013-02-09 09:15:00,
2013-02-09 02:21:00,31.5,26.9,29.48,SW,219,3.0,7.0,83,0.00,,SKC,0.00,0.00,VWS V14.01,2013-02-09 09:21:00,
2013-02-09 02:27:00,31.5,26.9,29.48,WSW,249,0.0,7.0,83,0.00,,SKC,0.00,0.00,VWS V14.01,2013-02-09 09:27:00,
2013-02-09 02:30:00,31.5,26.9,29.47,WSW,244,3.0,7.0,83,0.00,,SKC,0.00,0.00,VWS V14.01,2013-02-09 09:30:00,
2013-02-09 02:33:00,31.5,26.9,29.47,WSW,244,2.0,4.0,83,0.00,,SKC,0.00,0.00,VWS V14.01,2013-02-09 09:33:00,
2013-02-09 02:39:00,31.5,26.6,29.48,WSW,238,0.0,6.0,82,0.00,,SKC,0.00,0.00,VWS V14.01,2013-02-09 09:39:00,
2013-02-09 02:45:00,31.4,26.5,29.48,SW,235,3.0,6.0,82,0.00,,SKC,0.00,0.00,VWS V14.01,2013-02-09 09:45:00,
2013-02-09 02:51:00,31.4,26.5,29.48,WSW,237,4.0,5.0,82,0.00,,SKC,0.00,0.00,VWS V14.01,2013-02-09 09:51:00,
2013-02-09 02:57:00,31.3,26.2,29.47,West,263,1.0,6.0,81,0.00,,SKC,0.00,0.00,VWS V14.01,2013-02-09 09:57:00,
2013-02-09 03:00:00,31.3,26.2,29.47,WSW,240,1.0,6.0,81,0.00,,SKC,0.00,0.00,VWS V14.01,2013-02-09 10:00:00,
2013-02-09 03:03:00,31.3,26.2,29.43,WSW,240,0.0,2.0,81,0.00,,SKC,0.00,0.00,VWS V14.01,2013-02-09 10:03:00,
2013-02-09 03:09:00,31.4,26.0,29.42,WSW,237,3.0,7.0,80,0.00,,SKC,0.00,0.00,VWS V14.01,2013-02-09 10:09:00,
2013-02-09 03:15:00,31.6,25.9,29.43,WSW,253,6.0,7.0,79,0.00,,SKC,0.00,0.00,VWS V14.01,2013-02-09 10:15:00,
2013-02-09 03:21:00,31.7,25.9,29.43,South,180,4.0,7.0,79,0.00,,SKC,0.00,0.00,VWS V14.01,2013-02-09 10:21:00,
2013-02-09 03:27:00,31.6,26.5,29.43,SSW,198,2.0,7.0,81,0.00,,SKC,0.00,0.00,VWS V14.01,2013-02-09 10:27:00,
2013-02-09 03:30:00,31.6,26.5,29.43,SSW,211,3.0,7.0,81,0.00,,SKC,0.00,0.00,VWS V14.01,2013-02-09 10:30:00,
2013-02-09 03:33:00,31.5,26.4,29.43,SSW,212,4.0,4.0,81,0.00,,SKC,0.00,0.00,VWS V14.01,2013-02-09 10:33:00,
2013-02-09 03:39:00,31.3,26.5,29.43,SSW,212,2.0,5.0,82,0.00,,SKC,0.00,0.00,VWS V14.01,2013-02-09 10:39:00,
2013-02-09 03:45:00,31.2,26.4,29.43,SSW,211,3.0,5.0,82,0.00,,SKC,0.00,0.00,VWS V14.01,2013-02-09 10:45:00,
2013-02-09 03:52:00,31.0,26.5,29.42,SSW,211,3.0,3.0,83,0.00,,SKC,0.00,0.00,VWS V14.01,2013-02-09 10:52:00,
2013-02-09 03:58:00,31.0,26.7,29.42,SSW,211,2.0,3.0,84,0.00,,SKC,0.00,0.00,VWS V14.01,2013-02-09 10:58:00,
2013-02-09 04:00:00,30.9,26.6,29.42,SSW,211,3.0,3.0,84,0.00,,SKC,0.00,0.00,VWS V14.01,2013-02-09 11:00:00,
2013-02-09 04:04:00,30.9,26.6,29.45,SSW,212,0.0,3.0,84,0.00,,SKC,0.00,0.00,VWS V14.01,2013-02-09 11:04:00,
2013-02-09 04:10:00,30.8,26.8,29.45,SSW,212,0.0,3.0,85,0.00,,SKC,0.00,0.00,VWS V14.01,2013-02-09 11:10:00,
2013-02-09 04:15:00,30.7,26.7,29.44,SSW,212,1.0,3.0,85,0.00,,SKC,0.00,0.00,VWS V14.01,2013-02-09 11:15:00,
2013-02-09 04:22:00,30.6,26.6,29.44,SSW,212,0.0,2.0,85,0.00,,SKC,0.00,0.00,VWS V14.01,2013-02-09 11:22:00,
2013-02-09 04:28:00,30.5,26.8,29.44,SSW,212,0.0,2.0,86,0.00,,SKC,0.00,0.00,VWS V14.01,2013-02-09 11:28:00,
2013-02-09 04:30:00,30.4,26.7,29.44,SSW,212,0.0,3.0,86,0.00,,SKC,0.00,0.00,VWS V14.01,2013-02-09 11:30:00,
2013-02-09 04:34:00,30.3,26.6,29.44,SSW,212,0.0,3.0,86,0.00,,SKC,0.00,0.00,VWS V14.01,2013-02-09 11:34:00,
2013-02-09 04:40:00,30.2,26.8,29.44,SSW,211,2.0,3.0,87,0.00,,SKC,0.00,0.00,VWS V14.01,2013-02-09 11:40:00,
2013-02-09 04:45:00,30.1,26.7,29.44,SSW,211,0.0,3.0,87,0.00,,SKC,0.00,0.00,VWS V14.01,2013-02-09 11:45:00,
2013-02-09 04:51:00,30.0,26.6,29.44,SSW,212,0.0,3.0,87,0.00,,SKC,0.00,0.00,VWS V14.01,2013-02-09 11:51:00,
2013-02-09 04:57:00,29.8,26.7,29.43,SSW,212,0.0,3.0,88,0.00,,SKC,0.00,0.00,VWS V14.01,2013-02-09 11:57:00,
2013-02-09 05:00:00,29.8,26.7,29.43,SSW,212,0.0,3.0,88,0.00,,SKC,0.00,0.00,VWS V14.01,2013-02-09 12:00:00,
2013-02-09 05:03:00,29.8,26.7,29.44,SSW,211,0.0,0.0,88,0.00,,SKC,0.00,0.00,VWS V14.01,2013-02-09 12:03:00,
2013-02-09 05:09:00,29.7,26.6,29.44,SSW,212,0.0,0.0,88,0.00,,SKC,0.00,0.00,VWS V14.01,2013-02-09 12:09:00,
2013-02-09 05:15:00,29.7,26.6,29.43,SSW,211,0.0,0.0,88,0.00,,SKC,0.00,0.00,VWS V14.01,2013-02-09 12:15:00,
2013-02-09 05:21:00,29.6,26.5,29.43,SSW,212,0.0,0.0,88,0.00,,SKC,0.00,0.00,VWS V14.01,2013-02-09 12:21:00,
2013-02-09 05:27:00,29.5,26.7,29.43,SSW,212,0.0,0.0,89,0.00,,SKC,0.00,0.00,VWS V14.01,2013-02-09 12:27:00,
2013-02-09 05:30:00,29.5,26.7,29.43,SSW,211,0.0,1.0,89,0.00,,SKC,0.00,0.00,VWS V14.01,2013-02-09 12:30:00,
2013-02-09 05:33:00,29.4,26.6,29.44,SSW,212,0.0,0.0,89,0.00,,SKC,0.00,0.00,VWS V14.01,2013-02-09 12:33:00,
2013-02-09 05:39:00,29.4,26.6,29.44,SSW,211,0.0,0.0,89,0.00,,SKC,0.00,0.00,VWS V14.01,2013-02-09 12:39:00,
2013-02-09 05:45:00,29.3,26.5,29.44,SSW,212,0.0,0.0,89,0.00,,SKC,0.00,0.00,VWS V14.01,2013-02-09 12:45:00,
2013-02-09 05:51:00,29.3,26.5,29.44,SSW,212,0.0,0.0,89,0.00,,SKC,0.00,0.00,VWS V14.01,2013-02-09 12:51:00,
2013-02-09 05:57:00,29.2,26.4,29.44,SSW,212,0.0,0.0,89,0.00,,SKC,0.00,0.00,VWS V14.01,2013-02-09 12:57:00,
2013-02-09 06:00:00,29.2,26.4,29.44,SSW,212,0.0,0.0,89,0.00,,SKC,0.00,0.00,VWS V14.01,2013-02-09 13:00:00,
2013-02-09 06:03:00,29.2,26.4,29.45,SSW,212,0.0,0.0,89,0.00,,SKC,0.00,0.00,VWS V14.01,2013-02-09 13:03:00,
2013-02-09 06:09:00,29.2,26.4,29.45,SSW,212,0.0,0.0,89,0.00,,SKC,0.00,0.00,VWS V14.01,2013-02-09 13:09:00,
2013-02-09 06:15:00,29.2,26.6,29.45,SSW,211,0.0,0.0,90,0.00,,SKC,0.00,0.00,VWS V14.01,2013-02-09 13:15:00,
2013-02-09 06:21:00,29.1,26.5,29.45,SSW,211,0.0,0.0,90,0.00,,SKC,0.00,0.00,VWS V14.01,2013-02-09 13:21:00,
2013-02-09 06:27:00,29.1,26.5,29.45,SSW,212,0.0,0.0,90,0.00,,SKC,0.00,0.00,VWS V14.01,2013-02-09 13:27:00,
2013-02-09 06:30:00,29.1,26.5,29.45,SSW,211,0.0,0.0,90,0.00,,SKC,0.00,0.00,VWS V14.01,2013-02-09 13:30:00,
2013-02-09 06:33:00,29.1,26.5,29.45,SSW,212,0.0,0.0,90,0.00,,SKC,0.00,0.00,VWS V14.01,2013-02-09 13:33:00,
2013-02-09 06:39:00,29.1,26.5,29.45,SSW,212,0.0,0.0,90,0.00,,SKC,0.00,0.00,VWS V14.01,2013-02-09 13:39:00,
2013-02-09 06:45:00,29.0,26.4,29.46,SSW,212,0.0,0.0,90,0.00,,SKC,0.00,0.00,VWS V14.01,2013-02-09 13:45:00,
2013-02-09 06:51:00,29.0,26.4,29.45,SSW,211,0.0,0.0,90,0.00,,SKC,0.00,0.00,VWS V14.01,2013-02-09 13:51:00,
2013-02-09 06:57:00,29.0,26.7,29.45,SSW,212,0.0,0.0,91,0.00,,SKC,0.00,0.00,VWS V14.01,2013-02-09 13:57:00,
2013-02-09 07:00:00,29.0,26.7,29.45,SSW,212,0.0,0.0,91,0.00,,SKC,0.00,0.00,VWS V14.01,2013-02-09 14:00:00,
2013-02-09 07:03:00,29.0,26.7,29.44,SSW,212,0.0,0.0,91,0.00,,SKC,0.00,0.00,VWS V14.01,2013-02-09 14:03:00,
2013-02-09 07:10:00,29.0,26.7,29.44,SSW,211,0.0,0.0,91,0.00,,SKC,0.00,0.00,VWS V14.01,2013-02-09 14:10:00,
2013-02-09 07:15:00,28.9,26.6,29.44,SSW,212,0.0,0.0,91,0.00,,SKC,0.00,0.00,VWS V14.01,2013-02-09 14:15:00,
2013-02-09 07:22:00,28.7,26.1,29.45,SSW,212,0.0,0.0,90,0.00,,SKC,0.00,0.00,VWS V14.01,2013-02-09 14:22:00,
2013-02-09 07:28:00,28.5,26.2,29.45,SSW,198,0.0,0.0,91,0.00,,SKC,0.00,0.00,VWS V14.01,2013-02-09 14:28:00,
2013-02-09 07:30:00,28.4,26.1,29.45,SSW,200,3.0,5.0,91,0.00,,SKC,0.00,0.00,VWS V14.01,2013-02-09 14:30:00,
2013-02-09 07:34:00,28.3,26.0,29.46,SSW,202,3.0,9.0,91,0.00,,SKC,0.00,0.00,VWS V14.01,2013-02-09 14:34:00,
2013-02-09 07:41:00,28.0,25.5,29.45,SW,223,0.0,9.0,90,0.00,,SKC,0.00,0.00,VWS V14.01,2013-02-09 14:41:00,
2013-02-09 07:45:00,27.8,25.2,29.45,SW,226,4.0,9.0,90,0.00,,SKC,0.00,0.00,VWS V14.01,2013-02-09 14:45:00,
2013-02-09 07:47:00,27.8,25.2,29.45,SW,221,3.0,6.0,90,0.00,,SKC,0.00,0.00,VWS V14.01,2013-02-09 14:47:00,
2013-02-09 07:54:00,27.5,25.0,29.45,SSW,205,6.0,7.0,90,0.00,,SKC,0.00,0.00,VWS V14.01,2013-02-09 14:54:00,
2013-02-09 08:00:00,27.3,24.8,29.46,SW,214,6.0,10.0,90,0.00,,SKC,0.00,0.00,VWS V14.01,2013-02-09 15:00:00,
2013-02-09 08:06:00,27.1,24.8,29.46,SSW,213,10.0,11.0,91,0.00,,SKC,0.00,0.00,VWS V14.01,2013-02-09 15:06:00,
2013-02-09 08:13:00,27.0,24.5,29.45,SW,226,10.0,11.0,90,0.00,,SKC,0.00,0.00,VWS V14.01,2013-02-09 15:13:00,
2013-02-09 08:15:00,26.9,24.4,29.46,SSW,211,7.0,16.0,90,0.00,,SKC,0.00,5.00,VWS V14.01,2013-02-09 15:15:00,
2013-02-09 08:19:00,26.7,24.2,29.45,SSW,193,6.0,17.0,90,0.00,,SKC,0.00,5.00,VWS V14.01,2013-02-09 15:19:00,
2013-02-09 08:25:00,26.7,23.9,29.44,SW,235,10.0,17.0,89,0.00,,SKC,0.00,7.00,VWS V14.01,2013-02-09 15:25:00,
2013-02-09 08:30:00,26.7,23.9,29.45,SSW,212,16.0,17.0,89,0.00,,SKC,0.00,9.00,VWS V14.01,2013-02-09 15:30:00,
2013-02-09 08:31:00,26.7,23.9,29.44,SSW,211,14.0,17.0,89,0.00,,SKC,0.00,9.00,VWS V14.01,2013-02-09 15:31:00,
2013-02-09 08:37:00,26.9,23.6,29.44,SSW,211,6.0,16.0,87,0.00,,SKC,0.00,11.00,VWS V14.01,2013-02-09 15:37:00,
2013-02-09 08:43:00,27.1,23.5,29.45,SW,226,9.0,16.0,86,0.00,,SKC,0.00,11.00,VWS V14.01,2013-02-09 15:43:00,
2013-02-09 08:45:00,27.2,23.3,29.45,SW,215,10.0,16.0,85,0.00,,SKC,0.00,11.00,VWS V14.01,2013-02-09 15:45:00,
2013-02-09 08:49:00,27.3,23.4,29.45,SW,233,9.0,16.0,85,0.00,,SKC,0.00,11.00,VWS V14.01,2013-02-09 15:49:00,
2013-02-09 08:55:00,27.5,23.6,29.44,SW,229,4.0,18.0,85,0.00,,SKC,0.00,11.00,VWS V14.01,2013-02-09 15:55:00,
2013-02-09 09:00:00,27.4,23.5,29.45,SSW,213,8.0,18.0,85,0.00,,SKC,0.00,11.00,VWS V14.01,2013-02-09 16:00:00,
2013-02-09 09:01:00,27.4,23.5,29.45,SSW,208,6.0,18.0,85,0.00,,SKC,0.00,11.00,VWS V14.01,2013-02-09 16:01:00,
2013-02-09 09:07:00,27.5,23.6,29.44,SW,223,9.0,13.0,85,0.00,,SKC,0.00,11.00,VWS V14.01,2013-02-09 16:07:00,
2013-02-09 09:13:00,27.6,23.4,29.44,SW,214,3.0,13.0,84,0.00,,SKC,0.00,11.00,VWS V14.01,2013-02-09 16:13:00,
2013-02-09 09:15:00,27.6,23.4,29.44,SSW,193,11.0,13.0,84,0.00,,SKC,0.00,11.00,VWS V14.01,2013-02-09 16:15:00,
2013-02-09 09:18:00,27.6,23.4,29.44,West,259,2.0,11.0,84,0.00,,SKC,0.00,12.00,VWS V14.01,2013-02-09 16:18:00,
2013-02-09 09:25:00,27.6,23.4,29.43,WSW,244,7.0,11.0,84,0.00,,SKC,0.00,16.00,VWS V14.01,2013-02-09 16:25:00,
2013-02-09 09:30:00,27.6,23.4,29.43,WSW,242,2.0,14.0,84,0.00,,SKC,0.00,19.00,VWS V14.01,2013-02-09 16:30:00,
2013-02-09 09:37:00,27.7,23.5,29.43,WSW,256,12.0,16.0,84,0.00,,SKC,0.00,21.00,VWS V14.01,2013-02-09 16:37:00,
2013-02-09 09:43:00,27.8,23.3,29.42,WSW,249,2.0,16.0,83,0.00,,SKC,0.00,23.00,VWS V14.01,2013-02-09 16:43:00,
2013-02-09 09:45:00,28.0,23.2,29.42,WSW,237,5.0,16.0,82,0.00,,SKC,0.00,25.00,VWS V14.01,2013-02-09 16:45:00,
2013-02-09 09:49:00,28.1,23.3,29.42,SSW,202,5.0,7.0,82,0.00,,SKC,0.00,26.00,VWS V14.01,2013-02-09 16:49:00,
2013-02-09 09:55:00,28.4,23.0,29.42,WSW,240,4.0,7.0,80,0.00,,SKC,0.00,28.00,VWS V14.01,2013-02-09 16:55:00,
2013-02-09 10:00:00,28.7,23.0,29.43,SW,221,7.0,10.0,79,0.00,,SKC,0.00,32.00,VWS V14.01,2013-02-09 17:00:00,
2013-02-09 10:06:00,28.9,22.6,29.43,South,178,3.0,10.0,77,0.00,,SKC,0.00,35.00,VWS V14.01,2013-02-09 17:06:00,
2013-02-09 10:12:00,29.3,23.0,29.42,SSW,194,2.0,10.0,77,0.00,,SKC,0.00,37.00,VWS V14.01,2013-02-09 17:12:00,
2013-02-09 10:15:00,29.4,23.4,29.42,South,183,6.0,10.0,78,0.00,,SKC,0.00,37.00,VWS V14.01,2013-02-09 17:15:00,
2013-02-09 10:18:00,29.5,23.2,29.41,South,186,4.0,6.0,77,0.00,,SKC,0.00,37.00,VWS V14.01,2013-02-09 17:18:00,
2013-02-09 10:24:00,29.7,23.1,29.41,SSE,165,4.0,11.0,76,0.00,,SKC,0.00,39.00,VWS V14.01,2013-02-09 17:24:00,
2013-02-09 10:30:00,29.9,23.6,29.41,SSE,168,3.0,11.0,77,0.00,,SKC,0.00,44.00,VWS V14.01,2013-02-09 17:30:00,
2013-02-09 10:31:00,29.9,23.6,29.41,SSE,168,1.0,11.0,77,0.00,,SKC,0.00,42.00,VWS V14.01,2013-02-09 17:31:00,
2013-02-09 10:37:00,30.1,23.1,29.41,SW,217,3.0,7.0,75,0.00,,SKC,0.00,47.00,VWS V14.01,2013-02-09 17:37:00,
2013-02-09 10:43:00,30.3,23.7,29.41,South,175,8.0,8.0,76,0.00,,SKC,0.00,51.00,VWS V14.01,2013-02-09 17:43:00,
2013-02-09 10:45:00,30.4,23.4,29.41,SSW,200,2.0,8.0,75,0.00,,SKC,0.00,51.00,VWS V14.01,2013-02-09 17:45:00,
2013-02-09 10:49:00,30.6,23.6,29.41,SW,233,4.0,7.0,75,0.00,,SKC,0.00,49.00,VWS V14.01,2013-02-09 17:49:00,
2013-02-09 10:56:00,30.8,23.2,29.41,WSW,241,5.0,7.0,73,0.00,,SKC,0.00,47.00,VWS V14.01,2013-02-09 17:56:00,
2013-02-09 11:00:00,30.8,22.2,29.41,SW,232,10.0,13.0,70,0.00,,SKC,0.00,49.00,VWS V14.01,2013-02-09 18:00:00,
2013-02-09 11:02:00,30.8,22.2,29.42,SW,221,2.0,10.0,70,0.00,,SKC,0.00,51.00,VWS V14.01,2013-02-09 18:02:00,
2013-02-09 11:08:00,31.0,22.0,29.42,SW,223,4.0,10.0,69,0.00,,SKC,0.00,60.00,VWS V14.01,2013-02-09 18:08:00,
2013-02-09 11:14:00,31.2,21.9,29.42,WSW,241,3.0,10.0,68,0.00,,SKC,0.00,69.00,VWS V14.01,2013-02-09 18:14:00,
2013-02-09 11:15:00,31.3,22.3,29.42,WSW,237,3.0,10.0,69,0.00,,SKC,0.00,72.00,VWS V14.01,2013-02-09 18:15:00,
2013-02-09 11:20:00,31.6,21.9,29.42,SW,223,5.0,10.0,67,0.00,,SKC,0.00,88.00,VWS V14.01,2013-02-09 18:20:00,
2013-02-09 11:26:00,32.2,22.5,29.42,SW,223,0.0,10.0,67,0.00,,SKC,0.00,111.00,VWS V14.01,2013-02-09 18:26:00,
2013-02-09 11:30:00,32.7,22.6,29.40,SW,225,2.0,10.0,66,0.00,,SKC,0.00,88.00,VWS V14.01,2013-02-09 18:30:00,
2013-02-09 11:32:00,32.8,22.7,29.40,SW,222,3.0,6.0,66,0.00,,SKC,0.00,84.00,VWS V14.01,2013-02-09 18:32:00,
2013-02-09 11:38:00,33.3,22.5,29.39,SSW,194,5.0,8.0,64,0.00,,SKC,0.00,95.00,VWS V14.01,2013-02-09 18:38:00,
2013-02-09 11:44:00,33.5,22.3,29.39,SSE,167,5.0,8.0,63,0.00,,SKC,0.00,88.00,VWS V14.01,2013-02-09 18:44:00,
2013-02-09 11:45:00,33.6,22.0,29.39,SSW,208,1.0,8.0,62,0.00,,SKC,0.00,91.00,VWS V14.01,2013-02-09 18:45:00,
2013-02-09 11:50:00,33.7,22.1,29.39,SW,222,4.0,6.0,62,0.00,,SKC,0.00,109.00,VWS V14.01,2013-02-09 18:50:00,
2013-02-09 11:56:00,33.9,21.9,29.38,SSW,213,0.0,6.0,61,0.01,,SKC,0.01,137.00,VWS V14.01,2013-02-09 18:56:00,
2013-02-09 12:00:00,34.4,22.4,29.39,East,91,3.0,6.0,61,0.01,,SKC,0.01,128.00,VWS V14.01,2013-02-09 19:00:00,
2013-02-09 12:02:00,34.4,23.5,29.42,NE,46,1.0,9.0,64,0.01,,SKC,0.01,123.00,VWS V14.01,2013-02-09 19:02:00,
2013-02-09 12:08:00,34.6,25.1,29.39,NNE,22,1.0,9.0,68,0.01,,SKC,0.01,148.00,VWS V14.01,2013-02-09 19:08:00,
2013-02-09 12:15:00,34.2,25.8,29.40,North,355,2.0,11.0,71,0.01,,SKC,0.01,153.00,VWS V14.01,2013-02-09 19:15:00,
2013-02-09 12:21:00,34.4,26.3,29.40,North,350,5.0,12.0,72,0.02,,SKC,0.02,209.00,VWS V14.01,2013-02-09 19:21:00,
2013-02-09 12:27:00,35.2,26.4,29.38,NNE,17,7.0,12.0,70,0.02,,SKC,0.02,269.00,VWS V14.01,2013-02-09 19:27:00,
2013-02-09 12:30:00,35.4,26.3,29.38,NNE,28,2.0,12.0,69,0.03,,SKC,0.03,272.00,VWS V14.01,2013-02-09 19:30:00,
2013-02-09 12:33:00,35.5,26.4,29.38,NNE,18,4.0,10.0,69,0.03,,SKC,0.03,271.00,VWS V14.01,2013-02-09 19:33:00,
2013-02-09 12:39:00,35.3,25.8,29.38,NNE,26,6.0,13.0,68,0.04,,SKC,0.04,272.00,VWS V14.01,2013-02-09 19:39:00,
2013-02-09 12:45:00,34.9,25.1,29.38,North,5,7.0,13.0,67,0.05,,SKC,0.05,865.00,VWS V14.01,2013-02-09 19:45:00,
2013-02-09 12:46:00,34.8,25.3,29.38,North,360,5.0,13.0,68,0.04,,SKC,0.04,387.00,VWS V14.01,2013-02-09 19:46:00,
2013-02-09 12:52:00,35.6,25.4,29.38,NNE,12,8.0,10.0,66,0.06,,SKC,0.06,863.00,VWS V14.01,2013-02-09 19:52:00,
2013-02-09 12:58:00,35.7,25.8,29.38,North,355,0.0,10.0,67,0.06,,SKC,0.06,636.00,VWS V14.01,2013-02-09 19:58:00,
2013-02-09 13:00:00,35.7,25.8,29.38,NE,34,5.0,10.0,67,0.06,,SKC,0.06,599.00,VWS V14.01,2013-02-09 20:00:00,
2013-02-09 13:04:00,35.6,25.0,29.37,NNE,32,6.0,10.0,65,0.06,,SKC,0.07,578.00,VWS V14.01,2013-02-09 20:04:00,
2013-02-09 13:10:00,35.2,25.7,29.39,NE,40,3.0,10.0,68,0.07,,SKC,0.08,700.00,VWS V14.01,2013-02-09 20:10:00,
2013-02-09 13:15:00,35.0,25.9,29.38,North,350,3.0,10.0,69,0.07,,SKC,0.08,432.00,VWS V14.01,2013-02-09 20:15:00,
2013-02-09 13:22:00,34.6,25.8,29.39,NNW,336,4.0,11.0,70,0.08,,SKC,0.09,399.00,VWS V14.01,2013-02-09 20:22:00,
2013-02-09 13:28:00,33.9,25.2,29.38,North,360,4.0,14.0,70,0.09,,SKC,0.10,250.00,VWS V14.01,2013-02-09 20:28:00,
2013-02-09 13:30:00,33.5,25.5,29.39,NNE,17,0.0,14.0,72,0.09,,SKC,0.10,218.00,VWS V14.01,2013-02-09 20:30:00,
2013-02-09 13:34:00,33.3,25.6,29.40,NNE,13,7.0,7.0,73,0.07,,SKC,0.10,195.00,VWS V14.01,2013-02-09 20:34:00,
2013-02-09 13:40:00,32.5,25.1,29.40,North,5,4.0,12.0,74,0.08,,SKC,0.11,216.00,VWS V14.01,2013-02-09 20:40:00,
2013-02-09 13:45:00,32.0,25.3,29.40,NNE,30,4.0,12.0,76,0.08,,SKC,0.11,188.00,VWS V14.01,2013-02-09 20:45:00,
2013-02-09 13:46:00,32.0,25.3,29.40,NNE,30,4.0,12.0,76,0.08,,SKC,0.11,188.00,VWS V14.01,2013-02-09 20:46:00,
2013-02-09 13:52:00,31.4,25.6,29.42,NE,40,6.0,9.0,79,0.06,,SKC,0.11,116.00,VWS V14.01,2013-02-09 20:52:00,
2013-02-09 13:58:00,30.5,25.7,29.42,NE,36,2.0,10.0,82,0.06,,SKC,0.11,72.00,VWS V14.01,2013-02-09 20:58:00,
2013-02-09 14:00:00,30.2,25.4,29.44,NE,40,4.0,10.0,82,0.07,,SKC,0.12,70.00,VWS V14.01,2013-02-09 21:00:00,
2013-02-09 14:04:00,29.9,25.7,29.44,ENE,59,3.0,6.0,84,0.06,,SKC,0.12,67.00,VWS V14.01,2013-02-09 21:04:00,
2013-02-09 14:10:00,29.3,25.4,29.44,NE,46,0.0,7.0,85,0.06,,SKC,0.12,54.00,VWS V14.01,2013-02-09 21:10:00,
2013-02-09 14:15:00,28.6,24.7,29.44,NE,53,1.0,7.0,85,0.06,,SKC,0.12,54.00,VWS V14.01,2013-02-09 21:15:00,
2013-02-09 14:21:00,28.3,24.7,29.46,NNE,28,2.0,5.0,86,0.04,,SKC,0.12,60.00,VWS V14.01,2013-02-09 21:21:00,
2013-02-09 14:27:00,28.1,24.7,29.46,NNE,26,3.0,5.0,87,0.04,,SKC,0.12,84.00,VWS V14.01,2013-02-09 21:27:00,
2013-02-09 14:30:00,28.1,24.7,29.46,NNE,19,1.0,5.0,87,0.04,,SKC,0.12,77.00,VWS V14.01,2013-02-09 21:30:00,
2013-02-09 14:33:00,28.1,24.7,29.46,NNE,20,0.0,2.0,87,0.02,,SKC,0.12,70.00,VWS V14.01,2013-02-09 21:33:00,
2013-02-09 14:39:00,28.0,24.6,29.45,NNE,31,0.0,5.0,87,0.02,,SKC,0.12,65.00,VWS V14.01,2013-02-09 21:39:00,
2013-02-09 14:45:00,28.0,24.6,29.45,NE,49,3.0,5.0,87,0.02,,SKC,0.12,84.00,VWS V14.01,2013-02-09 21:45:00,
2013-02-09 14:51:00,28.0,24.4,29.46,North,9,3.0,3.0,86,0.01,,SKC,0.12,74.00,VWS V14.01,2013-02-09 21:51:00,
2013-02-09 14:57:00,28.3,24.9,29.45,North,9,3.0,3.0,87,0.01,,SKC,0.12,97.00,VWS V14.01,2013-02-09 21:57:00,
2013-02-09 15:00:00,28.5,25.1,29.44,North,360,0.0,3.0,87,0.01,,SKC,0.12,105.00,VWS V14.01,2013-02-09 22:00:00,
2013-02-09 15:03:00,28.7,25.0,29.44,North,360,2.0,3.0,86,0.00,,SKC,0.12,118.00,VWS V14.01,2013-02-09 22:03:00,
2013-02-09 15:09:00,29.1,25.2,29.43,North,355,2.0,5.0,85,0.00,,SKC,0.12,127.00,VWS V14.01,2013-02-09 22:09:00,
2013-02-09 15:15:00,29.6,25.4,29.43,North,5,0.0,9.0,84,0.00,,SKC,0.12,123.00,VWS V14.01,2013-02-09 22:15:00,
2013-02-09 15:21:00,30.1,25.0,29.43,North,9,5.0,5.0,81,0.00,,SKC,0.12,183.00,VWS V14.01,2013-02-09 22:21:00,
2013-02-09 15:27:00,30.6,24.6,29.42,NE,46,3.0,5.0,78,0.00,,SKC,0.12,239.00,VWS V14.01,2013-02-09 22:27:00,
2013-02-09 15:30:00,30.9,24.5,29.42,North,355,1.0,5.0,77,0.00,,SKC,0.12,315.00,VWS V14.01,2013-02-09 22:30:00,
2013-02-09 15:33:00,31.1,24.4,29.42,NNE,13,2.0,4.0,76,0.00,,SKC,0.12,183.00,VWS V14.01,2013-02-09 22:33:00,
2013-02-09 15:39:00,31.2,23.9,29.42,North,11,0.0,4.0,74,0.01,,SKC,0.13,146.00,VWS V14.01,2013-02-09 22:39:00,
2013-02-09 15:45:00,31.0,23.4,29.42,NNE,15,3.0,5.0,73,0.01,,SKC,0.13,121.00,VWS V14.01,2013-02-09 22:45:00,
2013-02-09 15:51:00,30.7,23.1,29.42,NNE,26,0.0,3.0,73,0.01,,SKC,0.13,95.00,VWS V14.01,2013-02-09 22:51:00,
2013-02-09 15:57:00,30.4,22.8,29.43,NNE,26,0.0,4.0,73,0.01,,SKC,0.13,77.00,VWS V14.01,2013-02-09 22:57:00,
2013-02-09 16:00:00,30.3,23.0,29.43,NNE,26,0.0,4.0,74,0.01,,SKC,0.13,74.00,VWS V14.01,2013-02-09 23:00:00,
2013-02-09 16:03:00,30.2,22.9,29.44,NNE,26,0.0,3.0,74,0.01,,SKC,0.13,72.00,VWS V14.01,2013-02-09 23:03:00,
2013-02-09 16:09:00,30.1,22.8,29.44,NNE,27,0.0,3.0,74,0.01,,SKC,0.13,67.00,VWS V14.01,2013-02-09 23:09:00,
2013-02-09 16:15:00,30.1,23.1,29.44,NNE,27,0.0,3.0,75,0.02,,SKC,0.14,58.00,VWS V14.01,2013-02-09 23:15:00,
2013-02-09 16:21:00,30.1,23.5,29.44,NNE,27,0.0,0.0,76,0.02,,SKC,0.14,46.00,VWS V14.01,2013-02-09 23:21:00,
2013-02-09 16:27:00,30.0,23.4,29.44,NNE,26,0.0,0.0,76,0.02,,SKC,0.14,39.00,VWS V14.01,2013-02-09 23:27:00,
2013-02-09 16:30:00,30.0,23.4,29.44,NNE,27,0.0,0.0,76,0.02,,SKC,0.14,37.00,VWS V14.01,2013-02-09 23:30:00,
2013-02-09 16:33:00,30.0,23.7,29.44,NNE,26,0.0,1.0,77,0.02,,SKC,0.14,35.00,VWS V14.01,2013-02-09 23:33:00,
2013-02-09 16:39:00,29.9,23.6,29.44,NNE,28,0.0,1.0,77,0.02,,SKC,0.14,35.00,VWS V14.01,2013-02-09 23:39:00,
2013-02-09 16:45:00,29.6,23.3,29.44,NNE,28,0.0,2.0,77,0.02,,SKC,0.14,32.00,VWS V14.01,2013-02-09 23:45:00,
2013-02-09 16:51:00,29.4,23.4,29.46,NNE,27,0.0,0.0,78,0.01,,SKC,0.14,26.00,VWS V14.01,2013-02-09 23:51:00,
2013-02-09 16:57:00,29.2,23.2,29.46,NNE,26,0.0,0.0,78,0.01,,SKC,0.14,23.00,VWS V14.01,2013-02-09 23:57:00,
2013-02-09 17:00:00,29.2,23.5,29.46,NNE,26,0.0,0.0,79,0.01,,SKC,0.14,21.00,VWS V14.01,2013-02-10 00:00:00,
2013-02-09 17:04:00,29.1,23.4,29.46,NNE,27,0.0,1.0,79,0.01,,SKC,0.14,19.00,VWS V14.01,2013-02-10 00:04:00,
2013-02-09 17:10:00,29.0,23.3,29.46,NNE,27,0.0,1.0,79,0.01,,SKC,0.14,18.00,VWS V14.01,2013-02-10 00:10:00,
2013-02-09 17:15:00,28.8,23.1,29.46,NNE,28,0.0,1.0,79,0.01,,SKC,0.14,16.00,VWS V14.01,2013-02-10 00:15:00,
2013-02-09 17:22:00,28.7,23.3,29.46,NNE,27,0.0,1.0,80,0.00,,SKC,0.14,11.00,VWS V14.01,2013-02-10 00:22:00,
2013-02-09 17:28:00,28.5,23.1,29.47,NNE,26,0.0,1.0,80,0.00,,SKC,0.14,5.00,VWS V14.01,2013-02-10 00:28:00,
2013-02-09 17:30:00,28.4,23.0,29.48,NNE,26,0.0,1.0,80,0.00,,SKC,0.14,0.00,VWS V14.01,2013-02-10 00:30:00,
2013-02-09 17:34:00,28.2,22.8,29.48,NNE,27,0.0,0.0,80,0.00,,SKC,0.14,0.00,VWS V14.01,2013-02-10 00:34:00,
2013-02-09 17:40:00,27.9,22.2,29.48,NNE,27,0.0,1.0,79,0.00,,SKC,0.14,0.00,VWS V14.01,2013-02-10 00:40:00,
2013-02-09 17:45:00,27.6,22.0,29.49,NNE,27,0.0,1.0,79,0.00,,SKC,0.14,0.00,VWS V14.01,2013-02-10 00:45:00,
2013-02-09 17:50:00,27.4,21.8,29.49,NNE,27,0.0,1.0,79,0.00,,SKC,0.14,0.00,VWS V14.01,2013-02-10 00:50:00,
2013-02-09 17:56:00,27.0,21.7,29.49,NNE,19,2.0,2.0,80,0.00,,SKC,0.14,0.00,VWS V14.01,2013-02-10 00:56:00,
2013-02-09 18:00:00,26.7,20.8,29.49,West,277,0.0,5.0,78,0.00,,SKC,0.14,0.00,VWS V14.01,2013-02-10 01:00:00,
2013-02-09 18:03:00,26.6,20.7,29.49,West,277,0.0,0.0,78,0.00,,SKC,0.14,0.00,VWS V14.01,2013-02-10 01:03:00,
2013-02-09 18:09:00,26.5,20.6,29.49,West,277,0.0,0.0,78,0.00,,SKC,0.14,0.00,VWS V14.01,2013-02-10 01:09:00,
2013-02-09 18:15:00,26.3,20.7,29.51,West,277,0.0,0.0,79,0.00,,SKC,0.14,0.00,VWS V14.01,2013-02-10 01:15:00,
2013-02-09 18:21:00,26.0,20.4,29.51,West,277,0.0,1.0,79,0.00,,SKC,0.14,0.00,VWS V14.01,2013-02-10 01:21:00,
2013-02-09 18:27:00,25.8,20.2,29.52,West,277,0.0,1.0,79,0.00,,SKC,0.14,0.00,VWS V14.01,2013-02-10 01:27:00,
2013-02-09 18:30:00,25.6,20.0,29.52,West,276,0.0,1.0,79,0.00,,SKC,0.14,0.00,VWS V14.01,2013-02-10 01:30:00,
2013-02-09 18:33:00,25.5,19.9,29.52,West,277,0.0,0.0,79,0.00,,SKC,0.14,0.00,VWS V14.01,2013-02-10 01:33:00,
2013-02-09 18:39:00,25.3,20.0,29.53,West,277,0.0,0.0,80,0.00,,SKC,0.14,0.00,VWS V14.01,2013-02-10 01:39:00,
2013-02-09 18:45:00,24.9,19.6,29.53,West,277,0.0,2.0,80,0.00,,SKC,0.14,0.00,VWS V14.01,2013-02-10 01:45:00,
2013-02-09 18:51:00,24.6,19.6,29.53,West,277,0.0,2.0,81,0.00,,SKC,0.14,0.00,VWS V14.01,2013-02-10 01:51:00,
2013-02-09 18:57:00,24.4,19.4,29.53,West,276,0.0,2.0,81,0.00,,SKC,0.14,0.00,VWS V14.01,2013-02-10 01:57:00,
2013-02-09 19:00:00,24.3,19.3,29.55,West,276,0.0,2.0,81,0.00,,SKC,0.14,0.00,VWS V14.01,2013-02-10 02:00:00,
2013-02-09 19:03:00,24.2,19.2,29.56,West,276,0.0,0.0,81,0.00,,SKC,0.14,0.00,VWS V14.01,2013-02-10 02:03:00,
2013-02-09 19:09:00,23.9,18.9,29.57,West,277,1.0,2.0,81,0.00,,SKC,0.14,0.00,VWS V14.01,2013-02-10 02:09:00,
2013-02-09 19:15:00,23.5,18.5,29.57,West,277,0.0,2.0,81,0.00,,SKC,0.14,0.00,VWS V14.01,2013-02-10 02:15:00,
2013-02-09 19:21:00,23.3,18.3,29.57,West,277,0.0,0.0,81,0.00,,SKC,0.14,0.00,VWS V14.01,2013-02-10 02:21:00,
2013-02-09 19:27:00,23.1,18.1,29.57,West,277,0.0,1.0,81,0.00,,SKC,0.14,0.00,VWS V14.01,2013-02-10 02:27:00,
2013-02-09 19:30:00,23.0,18.0,29.57,West,277,0.0,1.0,81,0.00,,SKC,0.14,0.00,VWS V14.01,2013-02-10 02:30:00,
2013-02-09 19:33:00,22.9,18.0,29.57,West,277,0.0,0.0,81,0.00,,SKC,0.14,0.00,VWS V14.01,2013-02-10 02:33:00,
2013-02-09 19:39:00,22.8,17.9,29.58,West,277,0.0,0.0,81,0.00,,SKC,0.14,0.00,VWS V14.01,2013-02-10 02:39:00,
2013-02-09 19:45:00,22.6,17.9,29.58,West,276,1.0,3.0,82,0.00,,SKC,0.14,0.00,VWS V14.01,2013-02-10 02:45:00,
2013-02-09 19:51:00,22.6,17.7,29.58,West,275,0.0,1.0,81,0.00,,SKC,0.14,0.00,VWS V14.01,2013-02-10 02:51:00,
2013-02-09 19:57:00,22.5,17.6,29.58,SSW,206,2.0,4.0,81,0.00,,SKC,0.14,0.00,VWS V14.01,2013-02-10 02:57:00,
2013-02-09 20:00:00,22.5,17.3,29.58,SSW,206,0.0,4.0,80,0.00,,SKC,0.14,0.00,VWS V14.01,2013-02-10 03:00:00,
2013-02-09 20:03:00,22.4,17.2,29.58,SSW,206,0.0,0.0,80,0.00,,SKC,0.14,0.00,VWS V14.01,2013-02-10 03:03:00,
2013-02-09 20:09:00,22.3,16.8,29.60,SSW,206,0.0,1.0,79,0.00,,SKC,0.14,0.00,VWS V14.01,2013-02-10 03:09:00,
2013-02-09 20:15:00,22.2,16.7,29.60,SSW,206,0.0,1.0,79,0.00,,SKC,0.14,0.00,VWS V14.01,2013-02-10 03:15:00,
2013-02-09 20:21:00,22.1,16.6,29.61,SSW,206,0.0,0.0,79,0.00,,SKC,0.14,0.00,VWS V14.01,2013-02-10 03:21:00,
2013-02-09 20:27:00,21.8,16.0,29.61,SSW,206,0.0,1.0,78,0.00,,SKC,0.14,0.00,VWS V14.01,2013-02-10 03:27:00,
2013-02-09 20:30:00,21.7,15.9,29.61,SSW,206,0.0,1.0,78,0.00,,SKC,0.14,0.00,VWS V14.01,2013-02-10 03:30:00,
2013-02-09 20:33:00,21.5,15.4,29.61,SSW,206,0.0,0.0,77,0.00,,SKC,0.14,0.00,VWS V14.01,2013-02-10 03:33:00,
2013-02-09 20:39:00,21.1,15.0,29.62,SSW,206,0.0,1.0,77,0.00,,SKC,0.14,0.00,VWS V14.01,2013-02-10 03:39:00,
2013-02-09 20:45:00,20.7,14.6,29.62,SSW,206,0.0,1.0,77,0.00,,SKC,0.14,0.00,VWS V14.01,2013-02-10 03:45:00,
2013-02-09 20:52:00,20.3,14.6,29.64,SSW,206,0.0,0.0,78,0.00,,SKC,0.14,0.00,VWS V14.01,2013-02-10 03:52:00,
2013-02-09 20:58:00,20.0,14.0,29.64,SSW,206,0.0,1.0,77,0.00,,SKC,0.14,0.00,VWS V14.01,2013-02-10 03:58:00,
2013-02-09 21:00:00,19.8,14.1,29.64,SSW,206,0.0,1.0,78,0.00,,SKC,0.14,0.00,VWS V14.01,2013-02-10 04:00:00,
2013-02-09 21:04:00,19.7,14.0,29.63,SSW,206,0.0,0.0,78,0.00,,SKC,0.14,0.00,VWS V14.01,2013-02-10 04:04:00,
2013-02-09 21:10:00,19.7,14.3,29.63,SSW,206,0.0,1.0,79,0.00,,SKC,0.14,0.00,VWS V14.01,2013-02-10 04:10:00,
2013-02-09 21:15:00,19.3,13.9,29.64,SSW,206,1.0,2.0,79,0.00,,SKC,0.14,0.00,VWS V14.01,2013-02-10 04:15:00,
2013-02-09 21:21:00,19.1,14.0,29.64,SSW,206,0.0,2.0,80,0.00,,SKC,0.14,0.00,VWS V14.01,2013-02-10 04:21:00,
2013-02-09 21:27:00,19.1,14.0,29.64,SSW,206,0.0,2.0,80,0.00,,SKC,0.14,0.00,VWS V14.01,2013-02-10 04:27:00,
2013-02-09 21:30:00,19.0,13.9,29.64,SSW,206,0.0,2.0,80,0.00,,SKC,0.14,0.00,VWS V14.01,2013-02-10 04:30:00,
2013-02-09 21:33:00,19.0,13.9,29.64,SSW,206,0.0,0.0,80,0.00,,SKC,0.14,0.00,VWS V14.01,2013-02-10 04:33:00,
2013-02-09 21:39:00,18.8,13.7,29.64,SSW,207,0.0,3.0,80,0.00,,SKC,0.14,0.00,VWS V14.01,2013-02-10 04:39:00,
2013-02-09 21:45:00,18.6,13.8,29.64,SSW,207,0.0,4.0,81,0.00,,SKC,0.14,0.00,VWS V14.01,2013-02-10 04:45:00,
2013-02-09 21:51:00,18.6,14.0,29.65,SSW,192,4.0,6.0,82,0.00,,SKC,0.14,0.00,VWS V14.01,2013-02-10 04:51:00,
2013-02-09 21:57:00,18.9,14.6,29.65,South,184,2.0,6.0,83,0.00,,SKC,0.14,0.00,VWS V14.01,2013-02-10 04:57:00,
2013-02-09 22:00:00,18.9,14.6,29.65,SSE,155,0.0,6.0,83,0.00,,SKC,0.14,0.00,VWS V14.01,2013-02-10 05:00:00,
2013-02-09 22:01:00,18.9,14.6,29.64,SSE,155,0.0,0.0,83,0.00,,SKC,0.14,0.00,VWS V14.01,2013-02-10 05:01:00,
2013-02-09 22:03:00,18.9,14.6,29.64,SSE,155,0.0,2.0,83,0.00,,SKC,0.14,0.00,VWS V14.01,2013-02-10 05:03:00,
2013-02-09 22:09:00,18.9,14.3,29.64,SSE,155,0.0,2.0,82,0.00,,SKC,0.14,0.00,VWS V14.01,2013-02-10 05:09:00,
2013-02-09 22:15:00,18.8,14.2,29.64,SSE,155,2.0,2.0,82,0.00,,SKC,0.14,0.00,VWS V14.01,2013-02-10 05:15:00,
2013-02-09 22:21:00,18.8,14.2,29.64,SSE,155,1.0,4.0,82,0.00,,SKC,0.14,0.00,VWS V14.01,2013-02-10 05:21:00,
2013-02-09 22:27:00,18.9,14.6,29.64,SSW,197,6.0,10.0,83,0.00,,SKC,0.14,0.00,VWS V14.01,2013-02-10 05:27:00,
2013-02-09 22:30:00,19.3,15.0,29.64,SSW,192,7.0,10.0,83,0.00,,SKC,0.14,0.00,VWS V14.01,2013-02-10 05:30:00,
2013-02-09 22:33:00,19.5,15.2,29.64,South,177,8.0,10.0,83,0.00,,SKC,0.14,0.00,VWS V14.01,2013-02-10 05:33:00,
2013-02-09 22:39:00,19.9,15.0,29.64,South,178,7.0,10.0,81,0.00,,SKC,0.14,0.00,VWS V14.01,2013-02-10 05:39:00,
2013-02-09 22:45:00,20.1,14.9,29.64,South,180,5.0,10.0,80,0.00,,SKC,0.14,0.00,VWS V14.01,2013-02-10 05:45:00,
2013-02-09 22:51:00,20.0,14.8,29.64,SSW,198,4.0,9.0,80,0.00,,SKC,0.14,0.00,VWS V14.01,2013-02-10 05:51:00,
2013-02-09 22:57:00,20.2,15.0,29.64,SSE,155,6.0,9.0,80,0.00,,SKC,0.14,0.00,VWS V14.01,2013-02-10 05:57:00,
2013-02-09 23:00:00,20.3,15.1,29.64,South,175,6.0,9.0,80,0.00,,SKC,0.14,0.00,VWS V14.01,2013-02-10 06:00:00,
2013-02-09 23:03:00,20.4,15.2,29.61,SSE,151,6.0,7.0,80,0.00,,SKC,0.14,0.00,VWS V14.01,2013-02-10 06:03:00,
2013-02-09 23:09:00,20.5,15.0,29.62,South,178,7.0,9.0,79,0.00,,SKC,0.14,0.00,VWS V14.01,2013-02-10 06:09:00,
2013-02-09 23:15:00,20.7,15.2,29.62,SSE,165,3.0,9.0,79,0.00,,SKC,0.14,0.00,VWS V14.01,2013-02-10 06:15:00,
2013-02-09 23:21:00,20.7,15.2,29.62,SSE,161,5.0,6.0,79,0.00,,SKC,0.14,0.00,VWS V14.01,2013-02-10 06:21:00,
2013-02-09 23:27:00,20.8,15.0,29.62,South,182,3.0,7.0,78,0.00,,SKC,0.14,0.00,VWS V14.01,2013-02-10 06:27:00,
2013-02-09 23:30:00,20.8,14.7,29.62,SE,141,5.0,7.0,77,0.00,,SKC,0.14,0.00,VWS V14.01,2013-02-10 06:30:00,
2013-02-09 23:33:00,20.8,14.7,29.62,South,169,0.0,5.0,77,0.00,,SKC,0.14,0.00,VWS V14.01,2013-02-10 06:33:00,
2013-02-09 23:39:00,20.6,14.6,29.63,South,169,2.0,5.0,77,0.00,,SKC,0.14,0.00,VWS V14.01,2013-02-10 06:39:00,
2013-02-09 23:45:00,20.5,14.4,29.63,South,169,3.0,6.0,77,0.00,,SKC,0.14,0.00,VWS V14.01,2013-02-10 06:45:00,
2013-02-09 23:51:00,20.3,14.3,29.63,SSE,168,3.0,5.0,77,0.00,,SKC,0.14,0.00,VWS V14.01,2013-02-10 06:51:00,
2013-02-09 23:57:00,20.2,14.2,29.64,South,169,0.0,5.0,77,0.00,,SKC,0.14,0.00,VWS V14.01,2013-02-10 06:57:00,